Time;durP1;ratioP1;P1;durP2;ratioP2;P2;SDS_P1;SDS_P2;PMS_P1;PMS_P2;Temp;Humidity;BMP_temperature;BMP_pressure;BME280_temperature;BME280_humidity;BME280_pressure;Samples;Min_cycle;Max_cycle;Signal;HPM_P1;HPM_P2
2021/12/30 08:43:30;;;;;;;66.33;12.90;;;11.40;99.90;;;;;;5489037;22;20233;-84
2021/12/30 08:45:56;;;;;;;83.07;15.43;;;11.40;99.90;;;;;;5050309;28;20202;-84
2021/12/30 08:48:23;;;;;;;83.00;17.80;;;11.40;99.90;;;;;;5034769;28;20537;-83
2021/12/30 08:50:50;;;;;;;85.00;15.30;;;11.50;99.90;;;;;;5031039;28;20222;-82
2021/12/30 08:53:17;;;;;;;63.27;16.50;;;11.40;99.90;;;;;;5032342;28;20226;-85
2021/12/30 08:55:44;;;;;;;80.33;18.60;;;11.40;99.90;;;;;;5031934;28;20230;-84
2021/12/30 08:58:20;;;;;;;82.43;19.13;;;11.40;99.90;;;;;;5036686;22;20238;-83
2021/12/30 09:00:49;;;;;;;85.83;17.63;;;11.50;99.90;;;;;;5011967;28;20599;-84
2021/12/30 09:03:18;;;;;;;87.47;18.00;;;11.50;99.90;;;;;;5012237;28;20862;-85
2021/12/30 09:05:46;;;;;;;69.70;20.13;;;11.50;99.90;;;;;;5011377;28;20214;-84
2021/12/30 09:08:12;;;;;;;88.77;18.37;;;11.50;99.90;;;;;;5010531;28;20300;-82
2021/12/30 09:10:45;;;;;;;83.67;20.90;;;11.50;99.90;;;;;;5009901;28;20199;-85
2021/12/30 09:13:15;;;;;;;97.37;20.80;;;11.40;99.90;;;;;;5011342;28;20549;-82
2021/12/30 09:15:42;;;;;;;78.20;18.53;;;11.50;99.90;;;;;;5011844;28;20898;-83
2021/12/30 09:18:10;;;;;;;92.13;17.83;;;11.50;99.90;;;;;;5012160;28;20203;-84
2021/12/30 09:20:40;;;;;;;89.20;17.97;;;11.50;99.90;;;;;;5011401;28;20208;-83
2021/12/30 09:23:09;;;;;;;89.27;18.97;;;11.60;99.90;;;;;;5010844;28;20211;-84
2021/12/30 09:25:38;;;;;;;87.20;19.20;;;11.50;99.90;;;;;;5012178;28;20282;-83
2021/12/30 09:28:07;;;;;;;82.93;18.23;;;11.50;99.90;;;;;;5010074;28;20230;-85
2021/12/30 09:30:34;;;;;;;76.43;16.20;;;11.60;99.90;;;;;;5010327;28;20882;-84
2021/12/30 09:33:02;;;;;;;80.23;14.73;;;11.70;99.90;;;;;;5011551;28;20204;-84
2021/12/30 09:35:31;;;;;;;86.03;16.27;;;11.60;99.90;;;;;;5010672;28;20650;-83
2021/12/30 09:37:58;;;;;;;80.70;15.10;;;11.70;99.90;;;;;;5010948;28;20199;-85
2021/12/30 09:40:26;;;;;;;65.53;14.60;;;11.70;99.90;;;;;;5010128;28;20208;-85
2021/12/30 09:43:01;;;;;;;74.37;14.20;;;11.70;99.90;;;;;;5010164;28;20218;-84
2021/12/30 09:45:28;;;;;;;78.03;14.73;;;11.80;99.90;;;;;;5011006;28;20213;-84
2021/12/30 09:47:57;;;;;;;68.57;14.13;;;11.90;99.90;;;;;;5024903;28;20550;-84
2021/12/30 09:50:27;;;;;;;75.70;15.10;;;11.90;99.90;;;;;;5026118;28;20537;-82
2021/12/30 09:52:55;;;;;;;69.80;13.17;;;11.90;99.90;;;;;;5014155;28;20254;-84
2021/12/30 09:55:22;;;;;;;72.37;13.53;;;11.90;99.90;;;;;;5015775;28;20214;-82
2021/12/30 09:57:49;;;;;;;67.13;12.57;;;12.00;99.90;;;;;;5021526;28;20368;-82
2021/12/30 10:00:18;;;;;;;68.83;13.43;;;12.00;99.90;;;;;;5009701;28;20214;-84
2021/12/30 10:02:46;;;;;;;53.37;13.13;;;12.00;99.90;;;;;;5009538;28;20211;-84
2021/12/30 10:05:16;;;;;;;75.63;14.00;;;12.00;99.90;;;;;;5008768;28;20522;-82
2021/12/30 10:07:43;;;;;;;63.83;11.67;;;12.00;99.90;;;;;;5009237;28;20261;-81
2021/12/30 10:10:36;;;;;;;72.37;13.77;;;12.00;99.90;;;;;;5009560;28;20211;-83
2021/12/30 10:13:16;;;;;;;61.77;12.70;;;12.00;99.90;;;;;;4994698;28;20238;-83
2021/12/30 10:15:45;;;;;;;69.30;14.03;;;12.00;99.90;;;;;;5006398;28;20305;-81
2021/12/30 10:18:12;;;;;;;60.03;12.60;;;12.00;99.90;;;;;;5019690;28;20214;-82
2021/12/30 10:20:40;;;;;;;56.70;12.27;;;12.10;99.90;;;;;;5008861;28;20202;-84
2021/12/30 10:23:12;;;;;;;74.60;14.17;;;12.10;99.90;;;;;;5008885;28;20210;-82
2021/12/30 10:25:44;;;;;;;64.63;14.90;;;12.10;99.90;;;;;;5014924;28;20203;-83
2021/12/30 10:28:35;;;;;;;61.17;13.20;;;12.10;99.90;;;;;;5009543;28;20215;-84
2021/12/30 10:31:16;;;;;;;63.33;12.93;;;12.10;99.90;;;;;;5023539;28;20214;-83
2021/12/30 10:33:48;;;;;;;66.70;12.73;;;12.10;99.90;;;;;;5027625;28;20195;-84
2021/12/30 10:36:17;;;;;;;66.73;12.90;;;12.10;99.90;;;;;;5029149;28;20195;-84
2021/12/30 10:38:44;;;;;;;74.63;15.50;;;12.00;99.90;;;;;;5025308;28;20209;-83
2021/12/30 10:41:12;;;;;;;58.70;11.50;;;12.10;99.90;;;;;;5028818;28;20198;-82
2021/12/30 10:43:45;;;;;;;62.37;13.00;;;12.00;99.90;;;;;;5020926;28;20203;-83
2021/12/30 10:46:16;;;;;;;69.40;12.23;;;12.00;99.90;;;;;;5008508;28;20215;-83
2021/12/30 10:49:01;;;;;;;40.80;11.23;;;12.00;99.90;;;;;;5007729;28;20231;-81
2021/12/30 10:51:38;;;;;;;53.13;10.93;;;12.00;99.90;;;;;;5007958;28;20759;-81
2021/12/30 10:54:17;;;;;;;61.67;14.13;;;12.00;99.90;;;;;;5007711;28;20207;-83
2021/12/30 10:56:47;;;;;;;59.17;13.07;;;12.00;99.90;;;;;;5007702;28;20508;-82
2021/12/30 10:59:24;;;;;;;57.13;11.33;;;12.00;99.90;;;;;;5008283;28;20211;-80
2021/12/30 11:01:57;;;;;;;60.47;13.20;;;12.00;99.90;;;;;;5007076;28;20238;-82
2021/12/30 11:04:33;;;;;;;72.57;13.57;;;12.00;99.90;;;;;;5006526;28;20187;-80
2021/12/30 11:07:00;;;;;;;66.70;13.80;;;12.10;99.90;;;;;;5007386;28;20221;-80
2021/12/30 11:09:27;;;;;;;48.00;12.67;;;12.00;99.90;;;;;;5007289;28;20230;-84
2021/12/30 11:11:58;;;;;;;64.23;12.80;;;12.00;99.90;;;;;;5007687;28;20209;-84
2021/12/30 11:14:27;;;;;;;66.00;14.27;;;12.00;99.90;;;;;;5007483;28;20218;-84
2021/12/30 11:17:09;;;;;;;57.33;13.40;;;12.00;99.90;;;;;;5029917;23;20237;-83
2021/12/30 11:19:40;;;;;;;54.03;12.07;;;12.00;99.90;;;;;;5030714;28;20670;-81
2021/12/30 11:22:09;;;;;;;48.47;11.00;;;12.00;99.90;;;;;;5026762;28;20253;-81
2021/12/30 11:24:36;;;;;;;53.07;11.67;;;12.00;99.90;;;;;;5026230;28;20206;-81
2021/12/30 11:27:05;;;;;;;54.90;12.87;;;12.00;99.90;;;;;;5026298;28;20606;-83
2021/12/30 11:29:36;;;;;;;55.43;13.83;;;12.00;99.90;;;;;;5025973;28;20237;-82
2021/12/30 11:32:05;;;;;;;45.87;11.80;;;12.00;99.90;;;;;;5027153;28;20668;-83
2021/12/30 11:34:32;;;;;;;58.70;11.10;;;12.10;99.90;;;;;;5039538;28;20213;-84
2021/12/30 11:36:59;;;;;;;64.93;13.43;;;12.10;99.90;;;;;;5046587;28;20206;-80
2021/12/30 11:39:26;;;;;;;54.67;13.10;;;12.00;99.90;;;;;;5046910;28;20204;-80
2021/12/30 11:41:56;;;;;;;56.20;12.13;;;12.00;99.90;;;;;;5036924;28;20214;-82
2021/12/30 11:44:40;;;;;;;57.27;11.40;;;12.00;99.90;;;;;;5027194;28;20594;-83
2021/12/30 11:47:08;;;;;;;62.13;12.20;;;12.00;99.90;;;;;;5047296;28;20221;-81
2021/12/30 11:49:53;;;;;;;50.03;10.70;;;12.00;99.90;;;;;;5044064;28;20228;-83
2021/12/30 11:52:54;;;;;;;60.97;11.27;;;12.00;99.90;;;;;;5025998;28;20229;-82
2021/12/30 11:55:41;;;;;;;58.10;11.37;;;12.00;99.90;;;;;;5005031;28;20202;-82
2021/12/30 11:58:32;;;;;;;73.27;13.23;;;12.00;99.90;;;;;;5025201;28;20705;-82
2021/12/30 12:01:02;;;;;;;47.87;13.43;;;11.90;99.90;;;;;;5025689;28;20217;-82
2021/12/30 12:03:30;;;;;;;53.23;13.13;;;11.90;99.90;;;;;;5039886;28;20494;-83
2021/12/30 12:05:57;;;;;;;50.67;12.07;;;11.90;99.90;;;;;;5037235;28;20213;-82
2021/12/30 12:08:29;;;;;;;54.63;14.10;;;11.90;99.90;;;;;;5028826;28;20226;-81
2021/12/30 12:11:14;;;;;;;61.13;14.93;;;11.90;99.90;;;;;;5027676;28;20210;-81
2021/12/30 12:13:45;;;;;;;59.57;14.03;;;11.90;99.90;;;;;;5030245;28;20199;-82
2021/12/30 12:16:14;;;;;;;57.43;12.80;;;11.90;99.90;;;;;;5030362;28;20207;-82
2021/12/30 12:19:05;;;;;;;55.17;14.33;;;11.90;99.90;;;;;;5029422;28;20222;-81
2021/12/30 12:21:39;;;;;;;49.87;13.47;;;11.90;99.90;;;;;;5029228;28;20289;-81
2021/12/30 12:24:25;;;;;;;59.10;15.37;;;11.90;99.90;;;;;;5028764;28;20286;-82
2021/12/30 12:26:54;;;;;;;51.30;14.40;;;11.90;99.90;;;;;;5029472;28;20390;-81
2021/12/30 12:29:24;;;;;;;50.23;13.57;;;11.90;99.90;;;;;;5030125;28;20257;-83
2021/12/30 12:31:58;;;;;;;48.43;14.03;;;11.90;99.90;;;;;;5029865;28;20195;-81
2021/12/30 12:34:36;;;;;;;48.80;14.23;;;11.90;99.90;;;;;;5029411;28;20210;-82
2021/12/30 12:37:04;;;;;;;46.43;11.93;;;11.90;99.90;;;;;;5030121;28;20203;-83
2021/12/30 12:39:36;;;;;;;36.67;11.27;;;11.90;99.90;;;;;;5028400;28;20195;-82
2021/12/30 12:42:04;;;;;;;43.77;12.67;;;11.90;99.90;;;;;;5040592;28;20922;-83
2021/12/30 12:44:31;;;;;;;47.87;12.27;;;11.90;99.90;;;;;;5049489;28;20868;-83
2021/12/30 12:47:01;;;;;;;51.03;14.10;;;12.00;99.90;;;;;;5049108;28;20320;-83
2021/12/30 12:49:44;;;;;;;47.70;12.63;;;12.00;99.90;;;;;;5038015;28;20233;-82
2021/12/30 12:52:11;;;;;;;44.07;10.87;;;11.90;99.90;;;;;;5028470;28;20630;-82
2021/12/30 12:54:40;;;;;;;47.00;12.27;;;12.00;99.90;;;;;;5027934;28;20474;-83
2021/12/30 12:57:10;;;;;;;45.20;13.23;;;12.00;99.90;;;;;;5029718;28;20241;-82
2021/12/30 12:59:38;;;;;;;50.83;13.20;;;11.90;99.90;;;;;;5028334;28;20205;-81
2021/12/30 13:02:10;;;;;;;45.10;12.20;;;12.00;99.90;;;;;;5048578;28;20217;-81
2021/12/30 13:04:37;;;;;;;48.63;13.00;;;12.00;99.90;;;;;;5048137;28;20212;-81
2021/12/30 13:07:09;;;;;;;40.50;12.50;;;12.00;99.90;;;;;;5048982;28;20597;-83
2021/12/30 13:09:37;;;;;;;53.97;15.23;;;12.00;99.90;;;;;;5033225;28;20444;-83
2021/12/30 13:12:07;;;;;;;49.87;13.40;;;12.00;99.90;;;;;;5030064;28;20834;-81
2021/12/30 13:14:35;;;;;;;53.23;15.50;;;11.90;99.90;;;;;;5028807;28;20264;-83
2021/12/30 13:17:04;;;;;;;45.97;13.13;;;11.90;99.90;;;;;;5029925;28;20343;-82
2021/12/30 13:19:34;;;;;;;46.57;11.63;;;11.90;99.90;;;;;;5030140;28;20206;-80
2021/12/30 13:22:02;;;;;;;55.70;13.87;;;11.90;99.90;;;;;;5030083;28;20210;-81
2021/12/30 13:24:45;;;;;;;46.80;12.07;;;11.90;99.90;;;;;;5029038;28;20206;-81
2021/12/30 13:27:28;;;;;;;48.53;12.43;;;11.90;99.90;;;;;;5026422;28;20567;-81
2021/12/30 13:29:57;;;;;;;49.60;13.70;;;11.90;99.90;;;;;;5030063;28;20678;-82
2021/12/30 13:32:26;;;;;;;52.80;11.80;;;11.90;99.90;;;;;;5029252;28;20203;-82
2021/12/30 13:34:58;;;;;;;45.10;11.33;;;11.90;99.90;;;;;;5029032;28;20305;-82
2021/12/30 13:37:28;;;;;;;41.87;10.53;;;12.00;99.90;;;;;;5029200;28;20302;-82
2021/12/30 13:39:56;;;;;;;44.83;11.80;;;12.00;99.90;;;;;;5028557;28;21012;-83
2021/12/30 13:42:25;;;;;;;48.50;12.33;;;12.00;99.90;;;;;;5027675;28;20202;-81
2021/12/30 13:44:53;;;;;;;51.20;14.63;;;12.10;99.90;;;;;;5031641;28;20202;-81
2021/12/30 13:47:24;;;;;;;49.97;13.70;;;12.00;99.90;;;;;;5049877;28;20217;-80
2021/12/30 13:49:54;;;;;;;57.43;13.97;;;12.10;99.90;;;;;;5048552;28;20505;-83
2021/12/30 13:52:26;;;;;;;52.40;12.90;;;12.00;99.90;;;;;;5030667;28;20230;-82
2021/12/30 13:55:11;;;;;;;63.17;15.20;;;12.10;99.90;;;;;;5027614;28;20202;-80
2021/12/30 13:57:39;;;;;;;50.93;13.17;;;12.00;99.90;;;;;;5027018;28;20214;-80
2021/12/30 14:00:08;;;;;;;57.73;14.80;;;11.90;99.90;;;;;;5026602;28;20218;-83
2021/12/30 14:02:35;;;;;;;63.83;14.23;;;12.00;99.90;;;;;;5026693;28;20210;-81
2021/12/30 14:05:06;;;;;;;54.30;13.73;;;11.90;99.90;;;;;;5027385;28;20191;-82
2021/12/30 14:07:36;;;;;;;66.80;15.10;;;11.90;99.90;;;;;;5027120;28;20203;-82
2021/12/30 14:10:05;;;;;;;60.30;14.37;;;11.90;99.90;;;;;;5026902;28;20235;-81
2021/12/30 14:12:32;;;;;;;65.27;15.50;;;11.90;99.90;;;;;;5027118;28;20202;-81
2021/12/30 14:15:16;;;;;;;56.57;14.83;;;11.90;99.90;;;;;;5027563;28;20207;-80
2021/12/30 14:17:45;;;;;;;43.97;12.97;;;11.90;99.90;;;;;;5026450;28;20659;-82
2021/12/30 14:20:14;;;;;;;57.23;14.73;;;11.80;99.90;;;;;;5027707;28;20199;-82
2021/12/30 14:22:46;;;;;;;54.67;13.33;;;11.90;99.90;;;;;;5029297;28;20257;-83
2021/12/30 14:25:31;;;;;;;52.90;15.43;;;11.90;99.90;;;;;;5029849;28;20202;-83
2021/12/30 14:27:59;;;;;;;58.03;13.87;;;11.90;99.90;;;;;;5030258;28;20295;-82
2021/12/30 14:30:32;;;;;;;59.37;15.67;;;11.90;99.90;;;;;;5029008;28;20241;-81
2021/12/30 14:33:16;;;;;;;48.87;15.10;;;11.90;99.90;;;;;;5049090;28;20205;-81
2021/12/30 14:35:43;;;;;;;59.43;14.17;;;11.90;99.90;;;;;;5050054;28;20533;-83
2021/12/30 14:38:11;;;;;;;49.77;12.53;;;11.90;99.90;;;;;;5045694;28;20199;-85
2021/12/30 14:40:38;;;;;;;47.60;13.00;;;11.90;99.90;;;;;;5045310;28;20209;-85
2021/12/30 14:43:06;;;;;;;57.27;14.40;;;11.90;99.90;;;;;;5051771;28;20212;-84
2021/12/30 14:45:38;;;;;;;51.23;14.37;;;11.90;99.90;;;;;;5050705;28;20804;-84
2021/12/30 14:48:09;;;;;;;55.37;13.30;;;11.80;99.90;;;;;;5046232;28;20245;-84
2021/12/30 14:50:37;;;;;;;63.33;15.57;;;11.80;99.90;;;;;;5049365;28;20816;-88
2021/12/30 14:53:14;;;;;;;60.17;15.20;;;11.80;99.90;;;;;;5041140;28;20229;-87
2021/12/30 14:55:44;;;;;;;53.33;15.80;;;11.80;99.90;;;;;;5030487;28;20260;-85
2021/12/30 14:58:13;;;;;;;56.17;14.70;;;11.80;99.90;;;;;;5030271;28;20214;-86
2021/12/30 15:00:43;;;;;;;46.03;13.57;;;11.80;99.90;;;;;;5028815;28;20498;-86
2021/12/30 15:03:10;;;;;;;54.80;13.73;;;11.80;99.90;;;;;;5029890;28;20219;-85
2021/12/30 15:05:38;;;;;;;53.33;15.87;;;11.80;99.90;;;;;;5029124;28;20221;-84
2021/12/30 15:08:06;;;;;;;47.17;13.40;;;11.80;99.90;;;;;;5027358;28;20203;-81
2021/12/30 15:10:33;;;;;;;60.63;15.03;;;11.80;99.90;;;;;;5027127;28;20300;-82
2021/12/30 15:13:04;;;;;;;53.60;14.40;;;11.80;99.90;;;;;;5027073;28;20804;-82
2021/12/30 15:15:32;;;;;;;57.30;16.00;;;11.80;99.90;;;;;;5027195;28;20291;-82
2021/12/30 15:17:59;;;;;;;52.27;13.17;;;11.80;99.90;;;;;;5027302;28;20240;-84
2021/12/30 15:20:31;;;;;;;46.73;12.07;;;11.80;99.90;;;;;;5025623;28;20599;-84
2021/12/30 15:22:58;;;;;;;58.03;13.00;;;11.80;99.90;;;;;;5027842;28;20272;-80
2021/12/30 15:25:25;;;;;;;49.50;11.20;;;11.70;99.90;;;;;;5048192;28;20300;-83
2021/12/30 15:27:52;;;;;;;62.83;13.63;;;11.70;99.90;;;;;;5036278;28;20210;-82
2021/12/30 15:30:23;;;;;;;58.40;12.60;;;11.70;99.90;;;;;;5027664;28;20665;-83
2021/12/30 15:32:50;;;;;;;39.77;11.63;;;11.70;99.90;;;;;;5028669;28;20206;-87
2021/12/30 15:35:18;;;;;;;37.73;10.57;;;11.80;99.90;;;;;;5028130;28;20205;-81
2021/12/30 15:37:45;;;;;;;47.87;10.97;;;11.80;99.90;;;;;;5027055;28;20246;-80
2021/12/30 15:40:12;;;;;;;52.23;11.50;;;11.80;99.90;;;;;;5028775;28;20213;-84
2021/12/30 15:42:41;;;;;;;41.97;10.13;;;11.80;99.90;;;;;;5030783;28;20210;-80
2021/12/30 15:45:09;;;;;;;45.33;10.10;;;11.80;99.90;;;;;;5032227;28;20203;-82
2021/12/30 15:47:37;;;;;;;47.80;10.90;;;11.80;99.90;;;;;;5031360;28;20210;-80
2021/12/30 15:50:05;;;;;;;43.63;9.60;;;11.80;99.90;;;;;;5031708;28;20234;-82
2021/12/30 15:52:32;;;;;;;43.40;9.80;;;11.80;99.90;;;;;;5031430;28;20218;-82
2021/12/30 15:54:59;;;;;;;61.17;10.07;;;11.80;99.90;;;;;;5032495;28;20789;-83
2021/12/30 15:57:27;;;;;;;48.00;9.07;;;11.80;99.90;;;;;;5031323;28;20649;-79
2021/12/30 15:59:54;;;;;;;48.27;8.87;;;11.80;99.90;;;;;;5029812;28;20198;-81
2021/12/30 16:02:21;;;;;;;53.87;10.60;;;11.80;99.90;;;;;;5029907;28;20214;-84
2021/12/30 16:04:49;;;;;;;48.43;9.23;;;11.80;99.90;;;;;;5030968;28;20286;-83
2021/12/30 16:07:16;;;;;;;46.57;9.73;;;11.80;99.90;;;;;;5031156;28;20202;-82
2021/12/30 16:09:43;;;;;;;39.20;8.53;;;11.80;99.90;;;;;;5030942;28;20240;-85
2021/12/30 16:12:10;;;;;;;37.37;9.47;;;11.70;99.90;;;;;;5031077;28;20217;-83
2021/12/30 16:14:36;;;;;;;53.97;10.97;;;11.80;99.90;;;;;;5031271;28;20206;-82
2021/12/30 16:17:07;;;;;;;46.57;9.83;;;11.80;99.90;;;;;;5031244;28;20242;-83
2021/12/30 16:19:34;;;;;;;45.67;9.60;;;11.80;99.90;;;;;;5048276;28;20210;-84
2021/12/30 16:22:02;;;;;;;45.27;9.93;;;11.70;99.90;;;;;;5051866;28;20578;-83
2021/12/30 16:24:29;;;;;;;57.37;11.80;;;11.80;99.90;;;;;;5050199;28;20506;-81
2021/12/30 16:26:56;;;;;;;58.50;11.03;;;11.70;99.90;;;;;;5029515;28;20622;-80
2021/12/30 16:29:23;;;;;;;44.63;10.93;;;11.70;99.90;;;;;;5031496;28;20202;-85
2021/12/30 16:31:50;;;;;;;43.73;10.73;;;11.70;99.90;;;;;;5033298;28;20207;-84
2021/12/30 16:34:16;;;;;;;57.23;11.10;;;11.70;99.90;;;;;;5032243;28;20209;-82
2021/12/30 16:36:43;;;;;;;38.03;9.10;;;11.70;99.90;;;;;;5031883;28;20242;-83
2021/12/30 16:39:12;;;;;;;43.53;9.33;;;11.70;99.90;;;;;;5043989;28;20209;-81
2021/12/30 16:41:38;;;;;;;38.50;9.80;;;11.70;99.90;;;;;;5051408;28;20210;-81
2021/12/30 16:44:06;;;;;;;42.43;10.47;;;11.70;99.90;;;;;;5051280;28;20213;-83
2021/12/30 16:46:37;;;;;;;41.47;8.63;;;11.70;99.90;;;;;;5049476;28;20297;-83
2021/12/30 16:49:04;;;;;;;49.13;10.30;;;11.70;99.90;;;;;;5049420;28;20582;-83
2021/12/30 16:51:31;;;;;;;44.73;8.57;;;11.70;99.90;;;;;;5049666;28;20233;-83
2021/12/30 16:53:58;;;;;;;44.87;10.17;;;11.70;99.90;;;;;;5049981;28;20201;-83
2021/12/30 16:56:26;;;;;;;34.17;8.77;;;11.70;99.90;;;;;;5050254;28;20228;-82
2021/12/30 16:58:53;;;;;;;43.43;10.63;;;11.70;99.90;;;;;;5050953;28;20554;-78
2021/12/30 17:01:20;;;;;;;49.03;11.10;;;11.70;99.90;;;;;;5050099;28;20216;-82
2021/12/30 17:03:47;;;;;;;48.10;10.70;;;11.70;99.90;;;;;;5047613;28;20205;-82
2021/12/30 17:06:13;;;;;;;42.17;10.43;;;11.70;99.90;;;;;;5030001;28;20214;-82
2021/12/30 17:08:41;;;;;;;47.20;11.03;;;11.70;99.90;;;;;;5029605;28;20686;-82
2021/12/30 17:11:07;;;;;;;40.33;8.97;;;11.70;99.90;;;;;;5028647;28;20218;-81
2021/12/30 17:13:36;;;;;;;55.17;10.83;;;11.70;99.90;;;;;;5027884;28;20211;-82
2021/12/30 17:16:03;;;;;;;48.73;9.93;;;11.70;99.90;;;;;;5029209;28;20210;-82
2021/12/30 17:18:30;;;;;;;51.63;11.03;;;11.70;99.90;;;;;;5045508;28;20679;-82
2021/12/30 17:20:57;;;;;;;49.57;11.63;;;11.80;99.90;;;;;;5049597;28;20201;-83
2021/12/30 17:23:26;;;;;;;49.00;12.10;;;11.70;99.90;;;;;;5047696;28;20209;-82
2021/12/30 17:25:53;;;;;;;54.57;11.50;;;11.80;99.90;;;;;;5047613;28;20293;-82
2021/12/30 17:28:21;;;;;;;59.80;14.90;;;11.80;99.90;;;;;;5026764;28;20277;-81
2021/12/30 17:30:52;;;;;;;56.90;14.37;;;11.80;99.90;;;;;;5028259;28;20234;-81
2021/12/30 17:33:20;;;;;;;49.23;13.07;;;11.80;99.90;;;;;;5027491;28;20202;-80
2021/12/30 17:35:48;;;;;;;56.70;14.50;;;11.80;99.90;;;;;;5027300;28;20226;-80
2021/12/30 17:38:16;;;;;;;51.93;14.83;;;11.80;99.90;;;;;;5027498;28;20195;-81
2021/12/30 17:40:43;;;;;;;62.87;13.80;;;11.80;99.90;;;;;;5026841;28;20194;-82
2021/12/30 17:43:10;;;;;;;60.40;14.20;;;11.70;99.90;;;;;;5028429;28;20215;-83
2021/12/30 17:45:38;;;;;;;52.43;12.93;;;11.70;99.90;;;;;;5027466;28;20666;-82
2021/12/30 17:48:07;;;;;;;51.40;12.47;;;11.70;99.90;;;;;;5028350;28;20194;-81
2021/12/30 17:50:35;;;;;;;47.63;12.00;;;11.70;99.90;;;;;;5027952;28;20598;-82
2021/12/30 17:53:03;;;;;;;50.83;11.93;;;11.80;99.90;;;;;;5027925;28;20995;-81
2021/12/30 17:55:33;;;;;;;57.27;11.47;;;11.70;99.90;;;;;;5028054;28;20309;-82
2021/12/30 17:58:01;;;;;;;53.30;12.20;;;11.70;99.90;;;;;;5028121;28;20685;-81
2021/12/30 18:00:31;;;;;;;53.50;11.47;;;11.70;99.90;;;;;;5027606;28;20209;-81
2021/12/30 18:02:59;;;;;;;45.13;9.83;;;11.70;99.90;;;;;;5028019;28;20253;-81
2021/12/30 18:05:28;;;;;;;43.67;10.50;;;11.70;99.90;;;;;;5028400;28;20210;-81
2021/12/30 18:07:56;;;;;;;50.77;9.43;;;11.70;99.90;;;;;;5028902;28;20202;-83
2021/12/30 18:10:27;;;;;;;65.20;11.03;;;11.70;99.90;;;;;;5027709;28;20223;-83
2021/12/30 18:12:55;;;;;;;49.43;10.27;;;11.70;99.90;;;;;;5028233;28;20325;-81
2021/12/30 18:15:22;;;;;;;45.27;9.57;;;11.60;99.90;;;;;;5028089;28;20191;-81
2021/12/30 18:17:49;;;;;;;38.73;8.17;;;11.60;99.90;;;;;;5027323;28;20242;-81
2021/12/30 18:20:16;;;;;;;38.67;7.93;;;11.60;99.90;;;;;;5026300;28;20199;-81
2021/12/30 18:22:44;;;;;;;35.63;7.90;;;11.60;99.90;;;;;;5027397;28;20217;-81
2021/12/30 18:25:11;;;;;;;46.17;10.83;;;11.60;99.90;;;;;;5027748;28;20213;-79
2021/12/30 18:27:38;;;;;;;39.33;8.03;;;11.60;99.90;;;;;;5028703;28;20206;-81
2021/12/30 18:30:06;;;;;;;46.65;11.45;;;11.60;99.90;;;;;;5028708;28;20449;-81
2021/12/30 18:32:33;;;;;;;36.00;8.63;;;11.70;99.90;;;;;;5028269;28;20213;-80
2021/12/30 18:35:00;;;;;;;41.03;7.60;;;11.70;99.90;;;;;;5028395;28;20195;-83
2021/12/30 18:37:27;;;;;;;39.07;9.47;;;11.60;99.90;;;;;;5028241;28;20199;-81
2021/12/30 18:39:55;;;;;;;43.10;9.23;;;11.60;99.90;;;;;;5028822;28;20237;-85
2021/12/30 18:42:25;;;;;;;44.87;9.13;;;11.60;99.90;;;;;;5028669;28;20206;-80
2021/12/30 18:44:52;;;;;;;39.97;8.27;;;11.60;99.90;;;;;;5033470;28;20610;-84
2021/12/30 18:47:19;;;;;;;37.97;7.67;;;11.60;99.90;;;;;;5036732;28;20202;-81
2021/12/30 18:49:45;;;;;;;40.80;8.00;;;11.60;99.90;;;;;;5028925;28;20211;-84
2021/12/30 18:52:15;;;;;;;36.53;8.80;;;11.60;99.90;;;;;;5028465;28;20234;-82
2021/12/30 20:16:57;;;;;;;31.47;7.53;;;11.80;99.90;;;;;;5478744;23;20244;-83
2021/12/30 20:19:23;;;;;;;40.13;7.77;;;11.80;99.90;;;;;;5046537;28;20209;-84
2021/12/30 20:21:50;;;;;;;35.53;7.33;;;11.80;99.90;;;;;;5036929;28;20214;-83
2021/12/30 20:24:18;;;;;;;33.60;7.47;;;11.80;99.90;;;;;;5027873;28;20527;-84
2021/12/30 20:26:46;;;;;;;36.67;7.67;;;11.80;99.90;;;;;;5028707;28;20688;-84
2021/12/30 20:29:14;;;;;;;43.87;7.33;;;11.80;99.90;;;;;;5030110;28;20210;-85
2021/12/30 20:31:44;;;;;;;40.00;7.87;;;11.80;99.90;;;;;;5029537;28;20920;-84
2021/12/30 20:34:14;;;;;;;33.00;6.67;;;11.80;99.90;;;;;;5029727;28;20682;-83
2021/12/30 20:36:42;;;;;;;38.07;7.10;;;11.80;99.90;;;;;;5030992;28;20210;-84
2021/12/30 20:39:10;;;;;;;37.83;7.03;;;11.80;99.90;;;;;;5031319;28;20195;-82
2021/12/30 20:41:37;;;;;;;45.27;7.07;;;11.80;99.90;;;;;;5031986;28;20865;-83
2021/12/30 20:44:05;;;;;;;30.80;7.73;;;11.70;99.90;;;;;;5032527;28;20222;-84
2021/12/30 20:46:32;;;;;;;38.50;7.90;;;11.70;99.90;;;;;;5049845;28;20209;-82
2021/12/30 20:48:59;;;;;;;42.03;7.50;;;11.70;99.90;;;;;;5051906;28;20194;-83
2021/12/30 20:51:27;;;;;;;36.33;6.90;;;11.60;99.90;;;;;;5050360;28;20226;-83
2021/12/30 20:53:54;;;;;;;38.87;7.17;;;11.60;99.90;;;;;;5051317;28;20497;-83
2021/12/30 22:46:10;;;;;;;38.60;7.27;;;11.20;99.90;;;;;;5849683;22;20506;-85
2021/12/30 22:48:38;;;;;;;41.33;8.03;;;11.10;99.90;;;;;;5055845;28;20202;-84
2021/12/30 22:51:06;;;;;;;41.40;7.77;;;11.10;99.90;;;;;;5048964;28;20308;-85
2021/12/30 22:53:33;;;;;;;36.30;6.93;;;11.10;99.90;;;;;;5051364;28;20253;-83
2021/12/30 22:56:04;;;;;;;36.73;8.97;;;11.00;99.90;;;;;;5037449;28;20210;-83
2021/12/30 22:58:31;;;;;;;42.90;8.07;;;11.00;99.90;;;;;;5029673;28;20313;-84
2021/12/30 23:01:03;;;;;;;30.27;7.07;;;11.00;99.90;;;;;;5035945;28;20206;-84
2021/12/30 23:03:35;;;;;;;32.60;7.57;;;11.00;99.90;;;;;;5050408;28;20332;-84
2021/12/30 23:06:02;;;;;;;34.83;8.17;;;11.00;99.90;;;;;;5048324;28;20267;-83
2021/12/30 23:08:30;;;;;;;35.83;7.77;;;11.00;99.90;;;;;;5048833;28;20645;-83
2021/12/30 23:10:57;;;;;;;35.00;8.20;;;11.00;99.90;;;;;;5049713;28;20225;-86
2021/12/30 23:13:24;;;;;;;34.00;7.60;;;11.00;99.90;;;;;;5049625;28;20598;-85
2021/12/30 23:15:51;;;;;;;32.80;6.40;;;11.00;99.90;;;;;;5033736;28;20301;-81
2021/12/30 23:18:18;;;;;;;42.70;8.07;;;11.00;99.90;;;;;;5035228;28;20309;-81
2021/12/30 23:20:46;;;;;;;33.50;7.07;;;11.10;99.90;;;;;;5049178;28;20206;-81
2021/12/30 23:23:14;;;;;;;27.03;6.43;;;11.10;99.90;;;;;;5048835;28;20610;-83
2021/12/30 23:25:41;;;;;;;28.97;7.47;;;11.20;99.90;;;;;;5031480;28;20218;-84
2021/12/30 23:28:10;;;;;;;35.57;6.83;;;11.20;99.90;;;;;;5029758;28;20211;-84
2021/12/30 23:30:36;;;;;;;35.83;7.53;;;11.30;99.90;;;;;;5030517;28;20205;-83
2021/12/30 23:33:05;;;;;;;28.83;6.47;;;11.30;99.90;;;;;;5029863;28;20210;-84
2021/12/30 23:35:32;;;;;;;36.53;6.73;;;11.30;99.90;;;;;;5029347;28;20210;-84
2021/12/30 23:38:02;;;;;;;32.27;7.00;;;11.30;99.90;;;;;;5045666;28;20213;-83
2021/12/30 23:40:29;;;;;;;32.17;7.20;;;11.30;99.90;;;;;;5049334;28;20209;-84
2021/12/30 23:42:56;;;;;;;34.90;6.37;;;11.30;99.90;;;;;;5049891;28;20201;-85
2021/12/30 23:45:23;;;;;;;32.10;6.40;;;11.30;99.90;;;;;;5050364;28;20617;-83
2021/12/30 23:47:50;;;;;;;29.70;6.93;;;11.20;99.90;;;;;;5048793;28;20214;-82
2021/12/30 23:50:17;;;;;;;41.40;8.87;;;11.30;99.90;;;;;;5049432;28;20202;-85
2021/12/30 23:52:44;;;;;;;41.57;8.80;;;11.30;99.90;;;;;;5049418;28;20222;-84
2021/12/30 23:55:14;;;;;;;37.57;9.03;;;11.30;99.90;;;;;;5049349;28;20285;-83
2021/12/30 23:57:41;;;;;;;32.47;7.90;;;11.30;99.90;;;;;;5048787;28;20501;-83
